sensor_id;sensor_type;location;lat;lon;timestamp;P1;durP1;ratioP1;P2;durP2;ratioP2
75062;SDS011;63981;51.052;13.754;2023-04-24T00:00:28;4.95;;;4.30;;
75062;SDS011;63981;51.052;13.754;2023-04-24T00:02:54;5.90;;;4.25;;
75062;SDS011;63981;51.052;13.754;2023-04-24T00:05:22;5.68;;;4.57;;
75062;SDS011;63981;51.052;13.754;2023-04-24T00:07:49;7.65;;;4.47;;
75062;SDS011;63981;51.052;13.754;2023-04-24T00:10:18;5.45;;;4.20;;
75062;SDS011;63981;51.052;13.754;2023-04-24T00:12:44;6.03;;;4.35;;
75062;SDS011;63981;51.052;13.754;2023-04-24T00:15:10;8.15;;;4.53;;
75062;SDS011;63981;51.052;13.754;2023-04-24T00:17:36;5.57;;;3.80;;
75062;SDS011;63981;51.052;13.754;2023-04-24T00:20:03;4.75;;;3.78;;
75062;SDS011;63981;51.052;13.754;2023-04-24T00:22:30;4.43;;;3.85;;
75062;SDS011;63981;51.052;13.754;2023-04-24T00:24:56;4.47;;;3.67;;
75062;SDS011;63981;51.052;13.754;2023-04-24T00:27:22;6.43;;;3.80;;
75062;SDS011;63981;51.052;13.754;2023-04-24T00:29:48;5.28;;;3.17;;
75062;SDS011;63981;51.052;13.754;2023-04-24T00:32:14;4.57;;;4.03;;
75062;SDS011;63981;51.052;13.754;2023-04-24T00:34:40;6.72;;;3.70;;
75062;SDS011;63981;51.052;13.754;2023-04-24T00:37:06;3.85;;;3.45;;
75062;SDS011;63981;51.052;13.754;2023-04-24T00:39:32;6.25;;;4.32;;
75062;SDS011;63981;51.052;13.754;2023-04-24T00:41:57;5.38;;;4.43;;
75062;SDS011;63981;51.052;13.754;2023-04-24T00:44:23;5.15;;;3.95;;
75062;SDS011;63981;51.052;13.754;2023-04-24T00:46:49;4.90;;;3.67;;
75062;SDS011;63981;51.052;13.754;2023-04-24T00:49:22;3.90;;;3.25;;
75062;SDS011;63981;51.052;13.754;2023-04-24T00:51:49;7.22;;;4.20;;
75062;SDS011;63981;51.052;13.754;2023-04-24T00:54:17;4.78;;;3.97;;
75062;SDS011;63981;51.052;13.754;2023-04-24T00:56:44;5.43;;;3.65;;
75062;SDS011;63981;51.052;13.754;2023-04-24T00:59:13;7.30;;;4.25;;
75062;SDS011;63981;51.052;13.754;2023-04-24T01:01:42;4.38;;;3.35;;
75062;SDS011;63981;51.052;13.754;2023-04-24T01:04:11;5.30;;;3.70;;
75062;SDS011;63981;51.052;13.754;2023-04-24T01:06:40;4.07;;;3.53;;
75062;SDS011;63981;51.052;13.754;2023-04-24T01:09:08;6.03;;;3.70;;
75062;SDS011;63981;51.052;13.754;2023-04-24T01:11:36;6.75;;;4.13;;
75062;SDS011;63981;51.052;13.754;2023-04-24T01:14:04;5.40;;;4.10;;
75062;SDS011;63981;51.052;13.754;2023-04-24T01:16:30;5.00;;;3.90;;
75062;SDS011;63981;51.052;13.754;2023-04-24T01:18:56;5.60;;;4.13;;
75062;SDS011;63981;51.052;13.754;2023-04-24T01:21:21;6.10;;;3.75;;
75062;SDS011;63981;51.052;13.754;2023-04-24T01:23:53;4.82;;;3.55;;
75062;SDS011;63981;51.052;13.754;2023-04-24T01:26:19;4.03;;;3.50;;
75062;SDS011;63981;51.052;13.754;2023-04-24T01:28:45;5.82;;;4.60;;
75062;SDS011;63981;51.052;13.754;2023-04-24T01:31:11;4.53;;;3.78;;
75062;SDS011;63981;51.052;13.754;2023-04-24T01:33:37;5.82;;;4.25;;
75062;SDS011;63981;51.052;13.754;2023-04-24T01:36:03;4.20;;;3.80;;
75062;SDS011;63981;51.052;13.754;2023-04-24T01:38:29;6.13;;;4.03;;
75062;SDS011;63981;51.052;13.754;2023-04-24T01:40:55;5.68;;;4.05;;
75062;SDS011;63981;51.052;13.754;2023-04-24T01:43:21;5.20;;;3.90;;
75062;SDS011;63981;51.052;13.754;2023-04-24T01:45:47;7.40;;;4.00;;
75062;SDS011;63981;51.052;13.754;2023-04-24T01:48:13;5.95;;;3.95;;
75062;SDS011;63981;51.052;13.754;2023-04-24T01:50:39;6.50;;;4.20;;
75062;SDS011;63981;51.052;13.754;2023-04-24T01:53:05;6.15;;;3.83;;
75062;SDS011;63981;51.052;13.754;2023-04-24T01:55:31;5.57;;;4.10;;
75062;SDS011;63981;51.052;13.754;2023-04-24T01:57:57;4.65;;;3.67;;
75062;SDS011;63981;51.052;13.754;2023-04-24T02:00:25;4.75;;;3.92;;
75062;SDS011;63981;51.052;13.754;2023-04-24T02:02:52;5.03;;;3.97;;
75062;SDS011;63981;51.052;13.754;2023-04-24T02:05:18;6.72;;;4.53;;
75062;SDS011;63981;51.052;13.754;2023-04-24T02:07:43;4.75;;;4.05;;
75062;SDS011;63981;51.052;13.754;2023-04-24T02:10:09;5.57;;;4.55;;
75062;SDS011;63981;51.052;13.754;2023-04-24T02:12:35;6.53;;;4.50;;
75062;SDS011;63981;51.052;13.754;2023-04-24T02:15:01;5.78;;;4.40;;
75062;SDS011;63981;51.052;13.754;2023-04-24T02:17:28;8.25;;;4.45;;
75062;SDS011;63981;51.052;13.754;2023-04-24T02:19:54;5.05;;;4.20;;
75062;SDS011;63981;51.052;13.754;2023-04-24T02:22:19;9.05;;;4.70;;
75062;SDS011;63981;51.052;13.754;2023-04-24T02:24:45;5.53;;;4.63;;
75062;SDS011;63981;51.052;13.754;2023-04-24T02:27:14;6.03;;;4.07;;
75062;SDS011;63981;51.052;13.754;2023-04-24T02:29:40;6.47;;;5.32;;
75062;SDS011;63981;51.052;13.754;2023-04-24T02:32:06;5.03;;;4.03;;
75062;SDS011;63981;51.052;13.754;2023-04-24T02:34:32;5.63;;;4.68;;
75062;SDS011;63981;51.052;13.754;2023-04-24T02:36:58;4.90;;;4.32;;
75062;SDS011;63981;51.052;13.754;2023-04-24T02:39:24;6.82;;;4.50;;
75062;SDS011;63981;51.052;13.754;2023-04-24T02:41:51;8.00;;;4.80;;
75062;SDS011;63981;51.052;13.754;2023-04-24T02:44:17;6.18;;;4.53;;
75062;SDS011;63981;51.052;13.754;2023-04-24T02:46:43;5.78;;;4.80;;
75062;SDS011;63981;51.052;13.754;2023-04-24T02:49:09;7.32;;;4.07;;
75062;SDS011;63981;51.052;13.754;2023-04-24T02:51:34;5.82;;;4.80;;
75062;SDS011;63981;51.052;13.754;2023-04-24T02:54:03;5.97;;;4.85;;
75062;SDS011;63981;51.052;13.754;2023-04-24T02:56:29;5.00;;;4.07;;
75062;SDS011;63981;51.052;13.754;2023-04-24T02:58:57;5.38;;;4.47;;
75062;SDS011;63981;51.052;13.754;2023-04-24T03:01:22;6.05;;;4.68;;
75062;SDS011;63981;51.052;13.754;2023-04-24T03:03:48;5.82;;;4.80;;
75062;SDS011;63981;51.052;13.754;2023-04-24T03:06:15;5.50;;;4.90;;
75062;SDS011;63981;51.052;13.754;2023-04-24T03:08:41;4.82;;;4.10;;
75062;SDS011;63981;51.052;13.754;2023-04-24T03:11:07;7.32;;;5.20;;
75062;SDS011;63981;51.052;13.754;2023-04-24T03:13:34;5.50;;;4.20;;
75062;SDS011;63981;51.052;13.754;2023-04-24T03:16:00;5.88;;;4.50;;
75062;SDS011;63981;51.052;13.754;2023-04-24T03:18:27;8.23;;;5.07;;
75062;SDS011;63981;51.052;13.754;2023-04-24T03:20:52;5.93;;;4.80;;
75062;SDS011;63981;51.052;13.754;2023-04-24T03:23:18;6.60;;;5.40;;
75062;SDS011;63981;51.052;13.754;2023-04-24T03:25:44;5.70;;;4.90;;
75062;SDS011;63981;51.052;13.754;2023-04-24T03:28:11;5.57;;;4.25;;
75062;SDS011;63981;51.052;13.754;2023-04-24T03:30:43;6.00;;;4.35;;
75062;SDS011;63981;51.052;13.754;2023-04-24T03:33:10;4.95;;;3.97;;
75062;SDS011;63981;51.052;13.754;2023-04-24T03:35:41;5.80;;;4.47;;
75062;SDS011;63981;51.052;13.754;2023-04-24T03:38:09;7.30;;;5.38;;
75062;SDS011;63981;51.052;13.754;2023-04-24T03:40:41;9.07;;;5.35;;
75062;SDS011;63981;51.052;13.754;2023-04-24T03:43:37;6.57;;;5.35;;
75062;SDS011;63981;51.052;13.754;2023-04-24T03:46:04;5.07;;;4.00;;
75062;SDS011;63981;51.052;13.754;2023-04-24T03:48:33;4.72;;;3.80;;
75062;SDS011;63981;51.052;13.754;2023-04-24T03:51:00;9.52;;;4.45;;
75062;SDS011;63981;51.052;13.754;2023-04-24T03:53:27;5.43;;;4.43;;
75062;SDS011;63981;51.052;13.754;2023-04-24T03:55:54;4.28;;;3.85;;
75062;SDS011;63981;51.052;13.754;2023-04-24T03:58:21;7.55;;;3.65;;
75062;SDS011;63981;51.052;13.754;2023-04-24T04:00:47;3.85;;;3.03;;
75062;SDS011;63981;51.052;13.754;2023-04-24T04:03:51;4.07;;;2.30;;
75062;SDS011;63981;51.052;13.754;2023-04-24T04:06:22;4.32;;;3.08;;
75062;SDS011;63981;51.052;13.754;2023-04-24T04:08:50;3.08;;;2.40;;
75062;SDS011;63981;51.052;13.754;2023-04-24T04:11:15;3.60;;;2.40;;
75062;SDS011;63981;51.052;13.754;2023-04-24T04:13:41;5.13;;;2.90;;
75062;SDS011;63981;51.052;13.754;2023-04-24T04:16:08;3.22;;;2.00;;
75062;SDS011;63981;51.052;13.754;2023-04-24T04:18:34;2.72;;;1.83;;
75062;SDS011;63981;51.052;13.754;2023-04-24T04:21:00;2.92;;;2.25;;
75062;SDS011;63981;51.052;13.754;2023-04-24T04:23:26;4.28;;;2.60;;
75062;SDS011;63981;51.052;13.754;2023-04-24T04:26:14;3.60;;;2.20;;
75062;SDS011;63981;51.052;13.754;2023-04-24T04:28:54;4.07;;;2.65;;
75062;SDS011;63981;51.052;13.754;2023-04-24T04:31:20;2.47;;;1.95;;
75062;SDS011;63981;51.052;13.754;2023-04-24T04:33:48;5.93;;;2.15;;
75062;SDS011;63981;51.052;13.754;2023-04-24T04:36:13;1.98;;;1.20;;
75062;SDS011;63981;51.052;13.754;2023-04-24T04:38:44;1.52;;;0.93;;
75062;SDS011;63981;51.052;13.754;2023-04-24T04:41:33;2.15;;;1.10;;
75062;SDS011;63981;51.052;13.754;2023-04-24T04:44:01;3.38;;;1.40;;
75062;SDS011;63981;51.052;13.754;2023-04-24T04:46:30;2.17;;;1.15;;
75062;SDS011;63981;51.052;13.754;2023-04-24T04:49:05;1.95;;;0.93;;
75062;SDS011;63981;51.052;13.754;2023-04-24T04:51:31;1.10;;;1.00;;
75062;SDS011;63981;51.052;13.754;2023-04-24T04:53:57;2.10;;;1.05;;
75062;SDS011;63981;51.052;13.754;2023-04-24T04:56:23;1.38;;;0.85;;
75062;SDS011;63981;51.052;13.754;2023-04-24T04:58:50;3.30;;;1.15;;
75062;SDS011;63981;51.052;13.754;2023-04-24T05:01:16;3.13;;;1.40;;
75062;SDS011;63981;51.052;13.754;2023-04-24T05:03:45;1.20;;;0.80;;
75062;SDS011;63981;51.052;13.754;2023-04-24T05:08:40;2.08;;;0.80;;
75062;SDS011;63981;51.052;13.754;2023-04-24T05:11:09;1.80;;;0.60;;
75062;SDS011;63981;51.052;13.754;2023-04-24T05:13:36;1.70;;;0.70;;
75062;SDS011;63981;51.052;13.754;2023-04-24T05:16:05;2.10;;;0.77;;
75062;SDS011;63981;51.052;13.754;2023-04-24T05:18:32;1.63;;;0.70;;
75062;SDS011;63981;51.052;13.754;2023-04-24T05:20:58;3.17;;;0.90;;
75062;SDS011;63981;51.052;13.754;2023-04-24T05:23:24;1.75;;;0.70;;
75062;SDS011;63981;51.052;13.754;2023-04-24T05:25:52;1.58;;;0.70;;
75062;SDS011;63981;51.052;13.754;2023-04-24T05:28:19;1.95;;;0.60;;
75062;SDS011;63981;51.052;13.754;2023-04-24T05:30:54;3.30;;;0.95;;
75062;SDS011;63981;51.052;13.754;2023-04-24T05:33:23;1.55;;;0.75;;
75062;SDS011;63981;51.052;13.754;2023-04-24T05:35:48;0.98;;;0.80;;
75062;SDS011;63981;51.052;13.754;2023-04-24T05:38:14;4.40;;;0.93;;
75062;SDS011;63981;51.052;13.754;2023-04-24T05:40:43;2.67;;;1.20;;
75062;SDS011;63981;51.052;13.754;2023-04-24T05:43:09;3.05;;;1.20;;
75062;SDS011;63981;51.052;13.754;2023-04-24T05:45:35;4.10;;;1.80;;
75062;SDS011;63981;51.052;13.754;2023-04-24T05:48:02;2.70;;;0.90;;
75062;SDS011;63981;51.052;13.754;2023-04-24T05:50:28;3.30;;;0.95;;
75062;SDS011;63981;51.052;13.754;2023-04-24T05:52:54;2.97;;;1.98;;
75062;SDS011;63981;51.052;13.754;2023-04-24T05:55:27;11.15;;;8.02;;
75062;SDS011;63981;51.052;13.754;2023-04-24T05:57:53;2.03;;;1.20;;
75062;SDS011;63981;51.052;13.754;2023-04-24T06:00:20;1.48;;;0.90;;
75062;SDS011;63981;51.052;13.754;2023-04-24T06:02:53;2.08;;;1.05;;
75062;SDS011;63981;51.052;13.754;2023-04-24T06:05:20;1.75;;;0.80;;
75062;SDS011;63981;51.052;13.754;2023-04-24T06:07:46;1.27;;;0.65;;
75062;SDS011;63981;51.052;13.754;2023-04-24T06:10:12;2.35;;;0.63;;
75062;SDS011;63981;51.052;13.754;2023-04-24T06:12:41;1.83;;;0.77;;
75062;SDS011;63981;51.052;13.754;2023-04-24T06:15:12;1.95;;;0.60;;
75062;SDS011;63981;51.052;13.754;2023-04-24T06:18:07;1.67;;;0.80;;
75062;SDS011;63981;51.052;13.754;2023-04-24T06:20:33;2.25;;;0.95;;
75062;SDS011;63981;51.052;13.754;2023-04-24T06:23:00;4.18;;;0.98;;
75062;SDS011;63981;51.052;13.754;2023-04-24T06:25:27;2.55;;;0.60;;
75062;SDS011;63981;51.052;13.754;2023-04-24T06:27:55;0.75;;;0.45;;
75062;SDS011;63981;51.052;13.754;2023-04-24T06:30:21;0.75;;;0.50;;
75062;SDS011;63981;51.052;13.754;2023-04-24T06:32:46;2.42;;;0.60;;
75062;SDS011;63981;51.052;13.754;2023-04-24T06:35:14;0.98;;;0.50;;
75062;SDS011;63981;51.052;13.754;2023-04-24T06:37:41;2.47;;;0.70;;
75062;SDS011;63981;51.052;13.754;2023-04-24T06:40:07;2.60;;;0.80;;
75062;SDS011;63981;51.052;13.754;2023-04-24T06:42:33;1.92;;;0.88;;
75062;SDS011;63981;51.052;13.754;2023-04-24T06:45:01;2.70;;;0.77;;
75062;SDS011;63981;51.052;13.754;2023-04-24T06:47:29;2.60;;;0.80;;
75062;SDS011;63981;51.052;13.754;2023-04-24T06:49:55;1.27;;;0.73;;
75062;SDS011;63981;51.052;13.754;2023-04-24T06:52:21;0.95;;;0.52;;
75062;SDS011;63981;51.052;13.754;2023-04-24T06:54:46;1.30;;;0.40;;
75062;SDS011;63981;51.052;13.754;2023-04-24T06:57:12;0.98;;;0.52;;
75062;SDS011;63981;51.052;13.754;2023-04-24T06:59:38;0.70;;;0.40;;
75062;SDS011;63981;51.052;13.754;2023-04-24T07:02:04;1.33;;;0.63;;
75062;SDS011;63981;51.052;13.754;2023-04-24T07:04:30;3.80;;;0.80;;
75062;SDS011;63981;51.052;13.754;2023-04-24T07:06:56;1.27;;;0.40;;
75062;SDS011;63981;51.052;13.754;2023-04-24T07:09:23;2.72;;;0.50;;
75062;SDS011;63981;51.052;13.754;2023-04-24T07:11:50;1.80;;;0.60;;
75062;SDS011;63981;51.052;13.754;2023-04-24T07:14:17;1.48;;;0.55;;
75062;SDS011;63981;51.052;13.754;2023-04-24T07:16:43;1.13;;;0.50;;
75062;SDS011;63981;51.052;13.754;2023-04-24T07:19:09;0.75;;;0.30;;
75062;SDS011;63981;51.052;13.754;2023-04-24T07:21:35;1.80;;;0.70;;
75062;SDS011;63981;51.052;13.754;2023-04-24T07:24:01;2.03;;;0.70;;
75062;SDS011;63981;51.052;13.754;2023-04-24T07:26:27;1.27;;;0.93;;
75062;SDS011;63981;51.052;13.754;2023-04-24T07:28:54;1.70;;;0.80;;
75062;SDS011;63981;51.052;13.754;2023-04-24T07:31:20;1.10;;;0.52;;
75062;SDS011;63981;51.052;13.754;2023-04-24T07:33:47;1.52;;;0.47;;
75062;SDS011;63981;51.052;13.754;2023-04-24T07:36:13;1.80;;;0.50;;
75062;SDS011;63981;51.052;13.754;2023-04-24T07:38:42;1.15;;;0.30;;
75062;SDS011;63981;51.052;13.754;2023-04-24T07:41:09;2.63;;;0.50;;
75062;SDS011;63981;51.052;13.754;2023-04-24T07:43:35;1.30;;;0.47;;
75062;SDS011;63981;51.052;13.754;2023-04-24T07:46:00;1.45;;;0.60;;
75062;SDS011;63981;51.052;13.754;2023-04-24T07:48:26;1.00;;;0.40;;
75062;SDS011;63981;51.052;13.754;2023-04-24T07:50:53;1.25;;;0.50;;
75062;SDS011;63981;51.052;13.754;2023-04-24T07:53:19;1.33;;;0.82;;
75062;SDS011;63981;51.052;13.754;2023-04-24T07:55:45;0.88;;;0.30;;
75062;SDS011;63981;51.052;13.754;2023-04-24T07:58:11;2.15;;;0.43;;
75062;SDS011;63981;51.052;13.754;2023-04-24T08:00:37;2.15;;;0.43;;
75062;SDS011;63981;51.052;13.754;2023-04-24T08:03:02;1.50;;;0.20;;
75062;SDS011;63981;51.052;13.754;2023-04-24T08:05:28;2.15;;;0.63;;
75062;SDS011;63981;51.052;13.754;2023-04-24T08:07:54;1.27;;;0.40;;
75062;SDS011;63981;51.052;13.754;2023-04-24T08:10:21;1.67;;;0.40;;
75062;SDS011;63981;51.052;13.754;2023-04-24T08:12:47;1.90;;;0.60;;
75062;SDS011;63981;51.052;13.754;2023-04-24T08:15:13;1.42;;;0.30;;
75062;SDS011;63981;51.052;13.754;2023-04-24T08:17:39;1.00;;;0.60;;
75062;SDS011;63981;51.052;13.754;2023-04-24T08:20:05;0.60;;;0.40;;
75062;SDS011;63981;51.052;13.754;2023-04-24T08:22:35;2.13;;;0.30;;
75062;SDS011;63981;51.052;13.754;2023-04-24T08:25:01;2.00;;;0.60;;
75062;SDS011;63981;51.052;13.754;2023-04-24T08:27:27;1.80;;;0.30;;
75062;SDS011;63981;51.052;13.754;2023-04-24T08:29:54;0.60;;;0.40;;
75062;SDS011;63981;51.052;13.754;2023-04-24T08:32:20;3.83;;;0.50;;
75062;SDS011;63981;51.052;13.754;2023-04-24T08:34:46;1.17;;;0.50;;
75062;SDS011;63981;51.052;13.754;2023-04-24T08:37:11;2.22;;;0.40;;
75062;SDS011;63981;51.052;13.754;2023-04-24T08:39:37;2.15;;;0.60;;
75062;SDS011;63981;51.052;13.754;2023-04-24T08:42:04;2.33;;;0.50;;
75062;SDS011;63981;51.052;13.754;2023-04-24T08:44:33;1.08;;;0.20;;
75062;SDS011;63981;51.052;13.754;2023-04-24T08:47:04;0.65;;;0.40;;
75062;SDS011;63981;51.052;13.754;2023-04-24T08:49:30;1.33;;;0.50;;
75062;SDS011;63981;51.052;13.754;2023-04-24T08:51:56;0.93;;;0.50;;
75062;SDS011;63981;51.052;13.754;2023-04-24T08:54:22;1.40;;;0.47;;
75062;SDS011;63981;51.052;13.754;2023-04-24T08:56:48;1.73;;;0.50;;
75062;SDS011;63981;51.052;13.754;2023-04-24T08:59:15;1.02;;;0.52;;
75062;SDS011;63981;51.052;13.754;2023-04-24T09:01:41;4.03;;;0.85;;
75062;SDS011;63981;51.052;13.754;2023-04-24T09:04:07;1.35;;;0.30;;
75062;SDS011;63981;51.052;13.754;2023-04-24T09:06:38;1.38;;;0.38;;
75062;SDS011;63981;51.052;13.754;2023-04-24T09:09:04;0.90;;;0.50;;
75062;SDS011;63981;51.052;13.754;2023-04-24T09:11:31;1.30;;;0.40;;
75062;SDS011;63981;51.052;13.754;2023-04-24T09:14:00;1.15;;;0.20;;
75062;SDS011;63981;51.052;13.754;2023-04-24T09:16:26;0.77;;;0.50;;
75062;SDS011;63981;51.052;13.754;2023-04-24T09:18:52;2.00;;;0.40;;
75062;SDS011;63981;51.052;13.754;2023-04-24T09:21:20;12.50;;;3.88;;
75062;SDS011;63981;51.052;13.754;2023-04-24T09:23:46;2.53;;;1.13;;
75062;SDS011;63981;51.052;13.754;2023-04-24T09:26:22;2.50;;;0.50;;
75062;SDS011;63981;51.052;13.754;2023-04-24T09:28:48;1.50;;;0.40;;
75062;SDS011;63981;51.052;13.754;2023-04-24T09:31:18;0.75;;;0.40;;
75062;SDS011;63981;51.052;13.754;2023-04-24T09:33:53;2.22;;;0.38;;
75062;SDS011;63981;51.052;13.754;2023-04-24T09:36:34;1.42;;;0.40;;
75062;SDS011;63981;51.052;13.754;2023-04-24T09:39:11;0.73;;;0.40;;
75062;SDS011;63981;51.052;13.754;2023-04-24T09:41:53;1.48;;;0.60;;
75062;SDS011;63981;51.052;13.754;2023-04-24T09:44:22;2.25;;;0.50;;
75062;SDS011;63981;51.052;13.754;2023-04-24T09:46:56;0.68;;;0.30;;
75062;SDS011;63981;51.052;13.754;2023-04-24T09:49:28;2.92;;;0.45;;
75062;SDS011;63981;51.052;13.754;2023-04-24T09:52:06;2.13;;;0.45;;
75062;SDS011;63981;51.052;13.754;2023-04-24T09:54:33;0.63;;;0.38;;
75062;SDS011;63981;51.052;13.754;2023-04-24T09:56:59;1.25;;;0.40;;
75062;SDS011;63981;51.052;13.754;2023-04-24T09:59:28;2.88;;;0.63;;
75062;SDS011;63981;51.052;13.754;2023-04-24T10:01:55;1.38;;;0.47;;
75062;SDS011;63981;51.052;13.754;2023-04-24T10:04:22;3.13;;;0.30;;
75062;SDS011;63981;51.052;13.754;2023-04-24T10:06:50;3.20;;;0.63;;
75062;SDS011;63981;51.052;13.754;2023-04-24T10:09:18;2.15;;;0.47;;
75062;SDS011;63981;51.052;13.754;2023-04-24T10:11:46;2.38;;;0.98;;
75062;SDS011;63981;51.052;13.754;2023-04-24T10:14:13;1.63;;;0.38;;
75062;SDS011;63981;51.052;13.754;2023-04-24T10:16:40;1.50;;;0.43;;
75062;SDS011;63981;51.052;13.754;2023-04-24T10:19:07;3.33;;;0.57;;
75062;SDS011;63981;51.052;13.754;2023-04-24T10:21:34;1.38;;;0.47;;
75062;SDS011;63981;51.052;13.754;2023-04-24T10:24:00;0.70;;;0.40;;
75062;SDS011;63981;51.052;13.754;2023-04-24T10:26:29;2.15;;;0.47;;
75062;SDS011;63981;51.052;13.754;2023-04-24T10:28:54;1.38;;;0.40;;
75062;SDS011;63981;51.052;13.754;2023-04-24T10:31:23;1.17;;;0.50;;
75062;SDS011;63981;51.052;13.754;2023-04-24T10:33:51;4.68;;;0.50;;
75062;SDS011;63981;51.052;13.754;2023-04-24T10:36:19;0.55;;;0.32;;
75062;SDS011;63981;51.052;13.754;2023-04-24T10:38:48;0.40;;;0.40;;
75062;SDS011;63981;51.052;13.754;2023-04-24T10:41:16;1.70;;;0.50;;
75062;SDS011;63981;51.052;13.754;2023-04-24T10:44:03;1.30;;;0.47;;
75062;SDS011;63981;51.052;13.754;2023-04-24T10:46:39;1.80;;;0.40;;
75062;SDS011;63981;51.052;13.754;2023-04-24T10:49:09;1.23;;;0.30;;
75062;SDS011;63981;51.052;13.754;2023-04-24T10:51:50;1.23;;;0.40;;
75062;SDS011;63981;51.052;13.754;2023-04-24T10:54:27;1.58;;;0.50;;
75062;SDS011;63981;51.052;13.754;2023-04-24T10:59:45;2.22;;;0.40;;
75062;SDS011;63981;51.052;13.754;2023-04-24T11:02:15;1.20;;;0.43;;
75062;SDS011;63981;51.052;13.754;2023-04-24T11:04:42;0.88;;;0.35;;
75062;SDS011;63981;51.052;13.754;2023-04-24T11:07:09;0.60;;;0.20;;
75062;SDS011;63981;51.052;13.754;2023-04-24T11:09:36;0.35;;;0.30;;
75062;SDS011;63981;51.052;13.754;2023-04-24T11:12:09;1.75;;;0.50;;
75062;SDS011;63981;51.052;13.754;2023-04-24T11:17:28;0.80;;;0.45;;
75062;SDS011;63981;51.052;13.754;2023-04-24T11:20:03;0.65;;;0.40;;
75062;SDS011;63981;51.052;13.754;2023-04-24T11:22:35;1.88;;;0.52;;
75062;SDS011;63981;51.052;13.754;2023-04-24T11:25:03;0.52;;;0.30;;
75062;SDS011;63981;51.052;13.754;2023-04-24T11:27:31;0.65;;;0.30;;
75062;SDS011;63981;51.052;13.754;2023-04-24T11:30:08;0.85;;;0.32;;
75062;SDS011;63981;51.052;13.754;2023-04-24T11:32:36;0.95;;;0.40;;
75062;SDS011;63981;51.052;13.754;2023-04-24T11:37:43;2.45;;;0.55;;
75062;SDS011;63981;51.052;13.754;2023-04-24T11:42:43;0.80;;;0.40;;
75062;SDS011;63981;51.052;13.754;2023-04-24T11:45:11;1.35;;;0.40;;
75062;SDS011;63981;51.052;13.754;2023-04-24T11:47:38;0.88;;;0.40;;
75062;SDS011;63981;51.052;13.754;2023-04-24T11:50:06;1.27;;;0.30;;
75062;SDS011;63981;51.052;13.754;2023-04-24T11:52:36;3.20;;;0.30;;
75062;SDS011;63981;51.052;13.754;2023-04-24T11:55:03;1.13;;;0.38;;
75062;SDS011;63981;51.052;13.754;2023-04-24T11:57:29;1.38;;;0.40;;
75062;SDS011;63981;51.052;13.754;2023-04-24T12:00:00;0.20;;;0.17;;
75062;SDS011;63981;51.052;13.754;2023-04-24T12:02:27;0.82;;;0.40;;
75062;SDS011;63981;51.052;13.754;2023-04-24T12:04:53;0.60;;;0.50;;
75062;SDS011;63981;51.052;13.754;2023-04-24T12:07:19;0.77;;;0.40;;
75062;SDS011;63981;51.052;13.754;2023-04-24T12:09:46;0.95;;;0.70;;
75062;SDS011;63981;51.052;13.754;2023-04-24T12:12:14;2.40;;;0.50;;
75062;SDS011;63981;51.052;13.754;2023-04-24T12:15:06;3.15;;;0.90;;
75062;SDS011;63981;51.052;13.754;2023-04-24T12:17:32;1.67;;;0.50;;
75062;SDS011;63981;51.052;13.754;2023-04-24T12:19:59;1.23;;;0.50;;
75062;SDS011;63981;51.052;13.754;2023-04-24T12:25:19;1.55;;;0.50;;
75062;SDS011;63981;51.052;13.754;2023-04-24T12:27:46;2.08;;;0.52;;
75062;SDS011;63981;51.052;13.754;2023-04-24T12:30:17;2.75;;;0.73;;
75062;SDS011;63981;51.052;13.754;2023-04-24T12:32:44;1.73;;;0.77;;
75062;SDS011;63981;51.052;13.754;2023-04-24T12:35:11;0.75;;;0.43;;
75062;SDS011;63981;51.052;13.754;2023-04-24T12:37:37;1.00;;;0.40;;
75062;SDS011;63981;51.052;13.754;2023-04-24T12:40:08;1.55;;;0.60;;
75062;SDS011;63981;51.052;13.754;2023-04-24T12:42:41;3.10;;;0.70;;
75062;SDS011;63981;51.052;13.754;2023-04-24T12:45:08;1.23;;;0.60;;
75062;SDS011;63981;51.052;13.754;2023-04-24T12:47:34;1.55;;;0.68;;
75062;SDS011;63981;51.052;13.754;2023-04-24T12:50:01;2.60;;;0.60;;
75062;SDS011;63981;51.052;13.754;2023-04-24T12:52:28;2.08;;;0.70;;
75062;SDS011;63981;51.052;13.754;2023-04-24T12:54:58;2.75;;;0.65;;
75062;SDS011;63981;51.052;13.754;2023-04-24T12:57:25;1.85;;;0.70;;
75062;SDS011;63981;51.052;13.754;2023-04-24T12:59:56;1.55;;;0.63;;
75062;SDS011;63981;51.052;13.754;2023-04-24T13:02:24;1.63;;;0.70;;
75062;SDS011;63981;51.052;13.754;2023-04-24T13:04:51;1.67;;;0.40;;
75062;SDS011;63981;51.052;13.754;2023-04-24T13:07:17;1.13;;;0.43;;
75062;SDS011;63981;51.052;13.754;2023-04-24T13:09:43;1.33;;;0.47;;
75062;SDS011;63981;51.052;13.754;2023-04-24T13:12:10;1.70;;;0.70;;
75062;SDS011;63981;51.052;13.754;2023-04-24T13:14:36;1.73;;;0.80;;
75062;SDS011;63981;51.052;13.754;2023-04-24T13:17:02;3.40;;;0.70;;
75062;SDS011;63981;51.052;13.754;2023-04-24T13:19:29;3.83;;;0.57;;
75062;SDS011;63981;51.052;13.754;2023-04-24T13:21:55;0.93;;;0.60;;
75062;SDS011;63981;51.052;13.754;2023-04-24T13:24:22;1.92;;;0.52;;
75062;SDS011;63981;51.052;13.754;2023-04-24T13:26:54;2.15;;;0.60;;
75062;SDS011;63981;51.052;13.754;2023-04-24T13:29:22;0.90;;;0.60;;
75062;SDS011;63981;51.052;13.754;2023-04-24T13:31:49;3.53;;;0.70;;
75062;SDS011;63981;51.052;13.754;2023-04-24T13:34:22;0.98;;;0.52;;
75062;SDS011;63981;51.052;13.754;2023-04-24T13:36:49;0.98;;;0.50;;
75062;SDS011;63981;51.052;13.754;2023-04-24T13:39:16;2.75;;;0.60;;
75062;SDS011;63981;51.052;13.754;2023-04-24T13:41:42;2.58;;;0.93;;
75062;SDS011;63981;51.052;13.754;2023-04-24T13:44:08;2.25;;;0.50;;
75062;SDS011;63981;51.052;13.754;2023-04-24T13:46:34;0.88;;;0.43;;
75062;SDS011;63981;51.052;13.754;2023-04-24T13:49:01;0.85;;;0.50;;
75062;SDS011;63981;51.052;13.754;2023-04-24T13:51:29;1.95;;;0.60;;
75062;SDS011;63981;51.052;13.754;2023-04-24T13:53:55;2.22;;;0.57;;
75062;SDS011;63981;51.052;13.754;2023-04-24T13:56:21;1.88;;;0.55;;
75062;SDS011;63981;51.052;13.754;2023-04-24T13:58:48;0.75;;;0.60;;
75062;SDS011;63981;51.052;13.754;2023-04-24T14:01:14;1.85;;;0.60;;
75062;SDS011;63981;51.052;13.754;2023-04-24T14:03:41;1.65;;;0.70;;
75062;SDS011;63981;51.052;13.754;2023-04-24T14:06:08;3.35;;;0.68;;
75062;SDS011;63981;51.052;13.754;2023-04-24T14:08:34;0.90;;;0.60;;
75062;SDS011;63981;51.052;13.754;2023-04-24T14:11:00;2.90;;;0.90;;
75062;SDS011;63981;51.052;13.754;2023-04-24T14:13:26;0.90;;;0.57;;
75062;SDS011;63981;51.052;13.754;2023-04-24T14:15:53;1.75;;;0.55;;
75062;SDS011;63981;51.052;13.754;2023-04-24T14:18:18;0.70;;;0.60;;
75062;SDS011;63981;51.052;13.754;2023-04-24T14:20:44;1.00;;;0.50;;
75062;SDS011;63981;51.052;13.754;2023-04-24T14:23:10;0.82;;;0.60;;
75062;SDS011;63981;51.052;13.754;2023-04-24T14:25:36;2.33;;;0.75;;
75062;SDS011;63981;51.052;13.754;2023-04-24T14:28:02;1.92;;;0.90;;
75062;SDS011;63981;51.052;13.754;2023-04-24T14:30:27;1.70;;;0.80;;
75062;SDS011;63981;51.052;13.754;2023-04-24T14:32:53;1.70;;;0.70;;
75062;SDS011;63981;51.052;13.754;2023-04-24T14:35:19;1.48;;;0.70;;
75062;SDS011;63981;51.052;13.754;2023-04-24T14:37:45;1.42;;;0.65;;
75062;SDS011;63981;51.052;13.754;2023-04-24T14:40:11;1.67;;;0.70;;
75062;SDS011;63981;51.052;13.754;2023-04-24T14:42:37;1.67;;;0.65;;
75062;SDS011;63981;51.052;13.754;2023-04-24T14:45:02;2.90;;;0.80;;
75062;SDS011;63981;51.052;13.754;2023-04-24T14:47:28;5.03;;;0.80;;
75062;SDS011;63981;51.052;13.754;2023-04-24T14:49:54;0.88;;;0.70;;
75062;SDS011;63981;51.052;13.754;2023-04-24T14:52:20;1.38;;;0.70;;